Map

Track Data

SID SEASON NUMBER BASIN SUBBASIN NAME ISO_TIME NATURE LAT LON WMO_WIND WMO_PRES WMO_AGENCY TRACK_TYPE DIST2LAND LANDFALL IFLAG USA_AGENCY USA_ATCF_ID USA_LAT USA_LON USA_RECORD USA_STATUS USA_WIND USA_PRES USA_SSHS USA_R34_NE USA_R34_SE USA_R34_SW USA_R34_NW USA_R50_NE USA_R50_SE USA_R50_SW USA_R50_NW USA_R64_NE USA_R64_SE USA_R64_SW USA_R64_NW USA_POCI USA_ROCI USA_RMW USA_EYE TOKYO_LAT TOKYO_LON TOKYO_GRADE TOKYO_WIND TOKYO_PRES TOKYO_R50_DIR TOKYO_R50_LONG TOKYO_R50_SHORT TOKYO_R30_DIR TOKYO_R30_LONG TOKYO_R30_SHORT TOKYO_LAND CMA_LAT CMA_LON CMA_CAT CMA_WIND CMA_PRES HKO_LAT HKO_LON HKO_CAT HKO_WIND HKO_PRES NEWDELHI_LAT NEWDELHI_LON NEWDELHI_GRADE NEWDELHI_WIND NEWDELHI_PRES NEWDELHI_CI NEWDELHI_DP NEWDELHI_POCI REUNION_LAT REUNION_LON REUNION_TYPE REUNION_WIND REUNION_PRES REUNION_TNUM REUNION_CI REUNION_RMW REUNION_R34_NE REUNION_R34_SE REUNION_R34_SW REUNION_R34_NW REUNION_R50_NE REUNION_R50_SE REUNION_R50_SW REUNION_R50_NW REUNION_R64_NE REUNION_R64_SE REUNION_R64_SW REUNION_R64_NW BOM_LAT BOM_LON BOM_TYPE BOM_WIND BOM_PRES BOM_TNUM BOM_CI BOM_RMW BOM_R34_NE BOM_R34_SE BOM_R34_SW BOM_R34_NW BOM_R50_NE BOM_R50_SE BOM_R50_SW BOM_R50_NW BOM_R64_NE BOM_R64_SE BOM_R64_SW BOM_R64_NW BOM_ROCI BOM_POCI BOM_EYE BOM_POS_METHOD BOM_PRES_METHOD NADI_LAT NADI_LON NADI_CAT NADI_WIND NADI_PRES WELLINGTON_LAT WELLINGTON_LON WELLINGTON_WIND WELLINGTON_PRES DS824_LAT DS824_LON DS824_STAGE DS824_WIND DS824_PRES TD9636_LAT TD9636_LON TD9636_STAGE TD9636_WIND TD9636_PRES TD9635_LAT TD9635_LON TD9635_WIND TD9635_PRES TD9635_ROCI NEUMANN_LAT NEUMANN_LON NEUMANN_CLASS NEUMANN_WIND NEUMANN_PRES MLC_LAT MLC_LON MLC_CLASS MLC_WIND MLC_PRES USA_GUST BOM_GUST BOM_GUST_PER REUNION_GUST REUNION_GUST_PER USA_SEAHGT USA_SEARAD_NE USA_SEARAD_SE USA_SEARAD_SW USA_SEARAD_NW STORM_SPEED STORM_DIR
1948340S12176 1949 91 SP MM NOT_NAMED 1948-12-04 12:00:00 TS -12.3000 176.000 main 561 551 O________OO___ jtwc_sh SH031949 -12.3000 176.000 -1 -12.3000 176.000 TC -12.3000 176.000 4 4 104
1948340S12176 1949 91 SP MM NOT_NAMED 1948-12-04 15:00:00 TS -12.3501 176.204 main 541 531 P________PP___ SH031949 -12.3500 176.197 -1 -12.3500 176.197 TC -12.3502 176.217 4 4 104
1948340S12176 1949 91 SP MM NOT_NAMED 1948-12-04 18:00:00 TS -12.4001 176.409 main 531 523 O________OP___ jtwc_sh SH031949 -12.4000 176.400 -1 -12.4000 176.400 TC -12.4002 176.427 4 4 104
1948340S12176 1949 91 SP MM NOT_NAMED 1948-12-04 21:00:00 TS -12.4500 176.613 main 512 504 P________PP___ SH031949 -12.4500 176.607 -1 -12.4500 176.607 TC -12.4501 176.624 4 4 105
1948340S12176 1949 91 SP MM NOT_NAMED 1948-12-05 00:00:00 TS -12.5000 176.800 main 504 496 O________OO___ jtwc_sh SH031949 -12.5000 176.800 -1 -12.5000 176.800 TC -12.5000 176.800 4 4 107
1948340S12176 1949 91 SP MM NOT_NAMED 1948-12-05 03:00:00 TS -12.5500 176.960 main 496 482 P________PP___ SH031949 -12.5500 176.965 -1 -12.5500 176.965 TC -12.5499 176.951 4 3 109
1948340S12176 1949 91 SP MM NOT_NAMED 1948-12-05 06:00:00 TS -12.6000 177.093 main 482 477 O________OP___ jtwc_sh SH031949 -12.6000 177.100 -1 -12.6000 177.100 TC -12.5999 177.080 4 3 113
1948340S12176 1949 91 SP MM NOT_NAMED 1948-12-05 09:00:00 TS -12.6500 177.203 main 477 463 P________PP___ SH031949 -12.6500 177.208 -1 -12.6500 177.208 TC -12.6500 177.194 4 2 117
1948340S12176 1949 91 SP MM NOT_NAMED 1948-12-05 12:00:00 TS -12.7000 177.300 main 463 458 O________OO___ jtwc_sh SH031949 -12.7000 177.300 -1 -12.7000 177.300 TC -12.7000 177.300 4 2 116
1948340S12176 1949 91 SP MM NOT_NAMED 1948-12-05 15:00:00 TS -12.7336 177.384 main 458 444 P________PP___ SH031949 -12.7500 177.400 -1 -12.7500 177.400 TC -12.7009 177.351 4 2 113
1948340S12176 1949 91 SP MM NOT_NAMED 1948-12-05 18:00:00 TS -12.7698 177.468 main 444 444 O________OP___ jtwc_sh SH031949 -12.8000 177.500 -1 -12.8000 177.500 TC -12.7095 177.403 4 2 114
1948340S12176 1949 91 SP MM NOT_NAMED 1948-12-05 21:00:00 TS -12.8010 177.538 main 444 426 P________PP___ SH031949 -12.8199 177.555 -1 -12.8199 177.555 TC -12.7633 177.504 4 3 120
1948340S12176 1949 91 SP MM NOT_NAMED 1948-12-06 00:00:00 TS -12.9000 177.700 main 426 392 O________OO___ jtwc_sh SH031949 -12.9000 177.700 -1 -12.9000 177.700 TC -12.9000 177.700 4 6 122
1948340S12176 1949 91 SP MM NOT_NAMED 1948-12-06 03:00:00 TS -13.1122 178.056 main 388 341 P________PP___ SH031949 -13.0900 178.040 -1 -13.0900 178.040 TC -13.1564 178.089 4 10 124
1948340S12176 1949 91 SP MM NOT_NAMED 1948-12-06 06:00:00 TS -13.4321 178.523 main 341 282 O________OP___ jtwc_sh SH031949 -13.4000 178.500 -1 -13.4000 178.500 TC -13.4962 178.569 4 12 128
1948340S12176 1949 91 SP MM NOT_NAMED 1948-12-06 09:00:00 TS -13.8477 179.036 main 282 215 P________PP___ SH031949 -13.8277 179.022 -1 -13.8277 179.022 TC -13.8877 179.064 4 13 132
1948340S12176 1949 91 SP MM NOT_NAMED 1948-12-06 12:00:00 TS -14.3000 179.500 main 215 167 O________OO___ jtwc_sh SH031949 -14.3000 179.500 -1 -14.3000 179.500 TC -14.3000 179.500 4 11 139
1948340S12176 1949 91 SP MM NOT_NAMED 1948-12-06 15:00:00 TS -14.7027 179.798 main 167 123 P________PP___ SH031949 -14.7073 179.803 -1 -14.7073 179.803 TC -14.6933 179.789 4 9 149
1948340S12176 1949 91 SP MM NOT_NAMED 1948-12-06 18:00:00 TS -15.0998 180.002 main 123 84 O________OP___ jtwc_sh SH031949 -15.1000 180.000 -1 -15.1000 180.000 TC -15.0995 -179.995 4 9 156
1948340S12176 1949 91 SP MM NOT_NAMED 1948-12-06 21:00:00 TS -15.5070 180.172 main 84 54 P________PP___ SH031949 -15.5075 -179.827 -1 -15.5075 -179.827 TC -15.5059 -179.830 4 9 160
1948340S12176 1949 91 SP MM NOT_NAMED 1948-12-07 00:00:00 TS -15.9000 180.300 main 54 48 O________OO___ jtwc_sh SH031949 -15.9000 -179.700 -1 -15.9000 180.300 TC -15.9000 -179.700 4 8 163
1948340S12176 1949 91 SP MM NOT_NAMED 1948-12-07 03:00:00 TS -16.2611 180.416 main 54 54 P________PP___ SH031949 -16.2575 -179.592 -1 -16.2575 -179.592 TC -16.2683 -179.567 4 7 164
1948340S12176 1949 91 SP MM NOT_NAMED 1948-12-07 06:00:00 TS -16.6075 180.513 main 67 64 O________OP___ jtwc_sh SH031949 -16.6000 -179.500 -1 -16.6000 180.500 TC -16.6224 -179.462 4 7 165
1948340S12176 1949 91 SP MM NOT_NAMED 1948-12-07 09:00:00 TS -16.9551 180.613 main 77 77 P________PP___ SH031949 -16.9500 -179.393 -1 -16.9500 -179.393 TC -16.9652 -179.376 4 7 165
1948340S12176 1949 91 SP MM NOT_NAMED 1948-12-07 12:00:00 TS -17.3000 180.700 main 101 101 O________OO___ jtwc_sh SH031949 -17.3000 -179.300 -1 -17.3000 180.700 TC -17.3000 -179.300 4 7 169
1948340S12176 1949 91 SP MM NOT_NAMED 1948-12-07 15:00:00 TS -17.6653 180.761 main 138 138 P________PP___ SH031949 -17.6575 -179.250 -1 -17.6575 -179.250 TC -17.6809 -179.218 4 7 171
1948340S12176 1949 91 SP MM NOT_NAMED 1948-12-07 18:00:00 TS -18.0158 180.819 main 164 164 O________OP___ jtwc_sh SH031949 -18.0000 -179.200 -1 -18.0000 180.800 TC -18.0474 -179.143 4 7 168
1948340S12176 1949 91 SP MM NOT_NAMED 1948-12-07 21:00:00 TS -18.3518 180.910 main 208 208 P________PP___ SH031949 -18.3450 -179.100 -1 -18.3450 -179.100 TC -18.3653 -179.071 4 6 164
1948340S12176 1949 91 SP MM NOT_NAMED 1948-12-08 00:00:00 TS -18.6000 181.000 main 232 232 O________OO___ jtwc_sh SH031949 -18.6000 -179.000 -1 -18.6000 181.000 TC -18.6000 -179.000 4 4 158
1948340S12176 1949 91 SP MM NOT_NAMED 1948-12-08 03:00:00 TS -18.6950 181.058 main 247 247 P________PP___ SH031949 -18.6950 -178.950 -1 -18.6950 -178.950 TC -18.6950 -178.925 4 2 132
1948340S12176 1949 91 SP MM NOT_NAMED 1948-12-08 06:00:00 TS -18.7033 181.117 main 247 247 O________OP___ jtwc_sh SH031949 -18.7000 -178.900 -1 -18.7000 181.100 TC -18.7100 -178.850 4 1 87
1948340S12176 1949 91 SP MM NOT_NAMED 1948-12-08 09:00:00 TS -18.6883 181.208 main 253 253 P________PP___ SH031949 -18.6850 -178.800 -1 -18.6850 -178.800 TC -18.6950 -178.775 4 2 89
1948340S12176 1949 91 SP MM NOT_NAMED 1948-12-08 12:00:00 TS -18.7000 181.300 main 259 259 O________OO___ jtwc_sh SH031949 -18.7000 -178.700 -1 -18.7000 181.300 TC -18.7000 -178.700 4 2 134
1948340S12176 1949 91 SP MM NOT_NAMED 1948-12-08 15:00:00 TS -18.8261 181.357 main 274 274 P________PP___ SH031949 -18.8350 -178.650 -1 -18.8350 -178.650 TC -18.8084 -178.629 4 3 160
1948340S12176 1949 91 SP MM NOT_NAMED 1948-12-08 18:00:00 TS -18.9808 181.414 main 292 292 O________OP___ jtwc_sh SH031949 -19.0000 -178.600 -1 -19.0000 181.400 TC -18.9425 -178.558 4 3 154
1948340S12176 1949 91 SP MM NOT_NAMED 1948-12-08 21:00:00 TS -19.1034 181.501 main 308 308 P________PP___ SH031949 -19.1150 -178.508 -1 -19.1150 -178.508 TC -19.0803 -178.482 4 3 141
1948340S12176 1949 91 SP MM NOT_NAMED 1948-12-09 00:00:00 TS -19.2000 181.600 main 323 323 O________OO___ jtwc_sh SH031949 -19.2000 -178.400 -1 -19.2000 181.600 TC -19.2000 -178.400 4 2 131
1948340S12176 1949 91 SP MM NOT_NAMED 1948-12-09 03:00:00 TS -19.2635 181.698 main 338 338 P________PP___ SH031949 -19.2575 -178.300 -1 -19.2575 -178.300 TC -19.2756 -178.307 4 2 121
1948340S12176 1949 91 SP MM NOT_NAMED 1948-12-09 06:00:00 TS -19.3100 181.798 main 344 344 O________OP___ jtwc_sh SH031949 -19.3000 -178.200 -1 -19.3000 181.800 TC -19.3300 -178.207 4 2 117
1948340S12176 1949 91 SP MM NOT_NAMED 1948-12-09 09:00:00 TS -19.3615 181.899 main 359 359 P________PP___ SH031949 -19.3575 -178.100 -1 -19.3575 -178.100 TC -19.3694 -178.104 4 2 115
1948340S12176 1949 91 SP MM NOT_NAMED 1948-12-09 12:00:00 TS -19.4000 182.000 main 365 365 O________OO___ jtwc_sh SH031949 -19.4000 -178.000 -1 -19.4000 182.000 TC -19.4000 -178.000 4 2 105
1948340S12176 1949 91 SP MM NOT_NAMED 1948-12-09 15:00:00 TS -19.4080 182.092 main 372 372 P________PP___ SH031949 -19.4000 -177.900 -1 -19.4000 -177.900 TC -19.4239 -177.924 4 2 95
1948340S12176 1949 91 SP MM NOT_NAMED 1948-12-09 18:00:00 TS -19.4141 182.185 main 379 379 O________OP___ jtwc_sh SH031949 -19.4000 -177.800 -1 -19.4000 182.200 TC -19.4422 -177.845 4 2 102
1948340S12176 1949 91 SP MM NOT_NAMED 1948-12-09 21:00:00 TS -19.4448 182.276 main 385 385 P________PP___ SH031949 -19.4350 -177.715 -1 -19.4350 -177.715 TC -19.4645 -177.743 4 2 113
1948340S12176 1949 91 SP MM NOT_NAMED 1948-12-10 00:00:00 TS -19.5000 182.400 main 401 401 O________OO___ jtwc_sh SH031949 -19.5000 -177.600 -1 -19.5000 182.400 TC -19.5000 -177.600 4 3 117
1948340S12176 1949 91 SP MM NOT_NAMED 1948-12-10 03:00:00 TS -19.5896 182.584 main 423 423 P________PP___ SH031949 -19.6000 -177.430 -1 -19.6000 -177.430 TC -19.5689 -177.389 4 4 115
1948340S12176 1949 91 SP MM NOT_NAMED 1948-12-10 06:00:00 TS -19.6834 182.821 main 446 446 O________OP___ jtwc_sh SH031949 -19.7000 -177.200 -1 -19.7000 182.800 TC -19.6502 -177.138 4 5 108
1948340S12176 1949 91 SP MM NOT_NAMED 1948-12-10 09:00:00 TS -19.7539 183.111 main 476 476 P________PP___ SH031949 -19.7651 -176.900 -1 -19.7651 -176.900 TC -19.7314 -176.867 4 6 102
1948340S12176 1949 91 SP MM NOT_NAMED 1948-12-10 12:00:00 TS -19.8000 183.400 main 499 499 O________OO___ jtwc_sh SH031949 -19.8000 -176.600 -1 -19.8000 183.400 TC -19.8000 -176.600 4 4 98
1948340S12176 1949 91 SP MM NOT_NAMED 1948-12-10 15:00:00 TS -19.8124 183.578 main 514 514 P________PP___ SH031949 -19.7999 -176.392 -1 -19.7999 -176.392 TC -19.8373 -176.481 4 3 94
1948340S12176 1949 91 SP MM NOT_NAMED 1948-12-10 18:00:00 TS -19.8205 183.749 main 523 523 O________OP___ jtwc_sh SH031949 -19.8000 -176.200 -1 -19.8000 183.800 TC -19.8615 -176.352 4 3 98
1948340S12176 1949 91 SP MM NOT_NAMED 1948-12-10 21:00:00 TS -19.8596 183.933 main 546 546 P________PP___ SH031949 -19.8494 -176.040 -1 -19.8494 -176.040 TC -19.8801 -176.122 4 5 99
1948340S12176 1949 91 SP MM NOT_NAMED 1948-12-11 00:00:00 TS -19.9000 184.300 main 579 579 O________OO___ jtwc_sh SH031949 -19.9000 -175.700 -1 -19.9000 184.300 TC -19.9000 -175.700 4 10 93
1948340S12176 1949 91 SP MM NOT_NAMED 1948-12-11 03:00:00 TS -19.9118 184.999 main 640 640 P________PP___ SH031949 -19.8999 -175.020 -1 -19.8999 -175.020 TC -19.9357 -174.964 4 15 91
1948340S12176 1949 91 SP MM NOT_NAMED 1948-12-11 06:00:00 TS -19.9228 185.921 main 701 687 O________OP___ jtwc_sh SH031949 -19.9000 -174.100 -1 -19.9000 185.900 TC -19.9685 -174.038 4 18 92
1948340S12176 1949 91 SP MM NOT_NAMED 1948-12-11 09:00:00 TS -19.9642 186.956 main 695 693 P________PP___ SH031949 -19.9505 -173.058 -1 -19.9505 -173.058 TC -19.9917 -173.017 4 20 92
1948340S12176 1949 91 SP MM NOT_NAMED 1948-12-11 12:00:00 TS -20.0000 188.000 main 694 694 O________OO___ jtwc_sh SH031949 -20.0000 -172.000 -1 -20.0000 188.000 TC -20.0000 -172.000 4 18 91
1948340S12176 1949 91 SP MM NOT_NAMED 1948-12-11 15:00:00 TS -20.0066 188.899 main 703 703 P________PP___ SH031949 -20.0141 -171.120 -1 -20.0141 -171.120 TC -19.9916 -171.063 4 16 90
1948340S12176 1949 91 SP MM NOT_NAMED 1948-12-11 18:00:00 TS -19.9899 189.733 main 722 722 O________OP___ jtwc_sh SH031949 -20.0000 -170.300 -1 -20.0000 189.700 TC -19.9696 -170.200 4 16 88
1948340S12176 1949 91 SP MM NOT_NAMED 1948-12-11 21:00:00 TS -19.9517 190.564 main 755 744 P________PP___ SH031949 -19.9586 -169.460 -1 -19.9586 -169.460 TC -19.9380 -169.387 4 16 87
1948340S12176 1949 91 SP MM NOT_NAMED 1948-12-12 00:00:00 TS -19.9000 191.400 main 782 O________OO___ jtwc_sh SH031949 -19.9000 -168.600 -1 -19.9000 191.400 TC -19.9000 -168.600 4 16 86

Digital Typhoon Data and Search

About IBTrACS Database

This database is a web-friendly format of International Best Track Archive for Climate Stewardship (IBTrACS), a global best track data archive curated by NOAA dating back to 1842.

Updated: 2021-12-08